sensor_id;sensor_type;location;lat;lon;timestamp;P1;durP1;ratioP1;P2;durP2;ratioP2
21786;SDS011;11055;50.870;4.316;2023-11-21T00:00:20;42.65;;;26.38;;
21786;SDS011;11055;50.870;4.316;2023-11-21T00:02:46;41.95;;;24.75;;
21786;SDS011;11055;50.870;4.316;2023-11-21T00:05:13;40.10;;;24.70;;
21786;SDS011;11055;50.870;4.316;2023-11-21T00:07:39;40.90;;;25.10;;
21786;SDS011;11055;50.870;4.316;2023-11-21T00:10:06;44.13;;;25.67;;
21786;SDS011;11055;50.870;4.316;2023-11-21T00:12:35;44.50;;;24.13;;
21786;SDS011;11055;50.870;4.316;2023-11-21T00:15:01;43.00;;;25.15;;
21786;SDS011;11055;50.870;4.316;2023-11-21T00:17:27;44.88;;;24.90;;
21786;SDS011;11055;50.870;4.316;2023-11-21T00:19:53;45.45;;;27.80;;
21786;SDS011;11055;50.870;4.316;2023-11-21T00:22:19;45.58;;;25.52;;
21786;SDS011;11055;50.870;4.316;2023-11-21T00:24:45;42.92;;;24.92;;
21786;SDS011;11055;50.870;4.316;2023-11-21T00:27:11;46.25;;;26.00;;
21786;SDS011;11055;50.870;4.316;2023-11-21T00:29:37;46.22;;;25.77;;
21786;SDS011;11055;50.870;4.316;2023-11-21T00:32:04;41.97;;;25.45;;
21786;SDS011;11055;50.870;4.316;2023-11-21T00:34:30;46.47;;;25.15;;
21786;SDS011;11055;50.870;4.316;2023-11-21T00:36:56;44.75;;;26.33;;
21786;SDS011;11055;50.870;4.316;2023-11-21T00:39:22;48.75;;;26.13;;
21786;SDS011;11055;50.870;4.316;2023-11-21T00:41:47;49.33;;;26.63;;
21786;SDS011;11055;50.870;4.316;2023-11-21T00:44:13;45.35;;;25.95;;
21786;SDS011;11055;50.870;4.316;2023-11-21T00:46:39;45.55;;;25.35;;
21786;SDS011;11055;50.870;4.316;2023-11-21T00:49:04;47.33;;;26.92;;
21786;SDS011;11055;50.870;4.316;2023-11-21T00:51:30;46.13;;;26.70;;
21786;SDS011;11055;50.870;4.316;2023-11-21T00:53:56;44.42;;;25.48;;
21786;SDS011;11055;50.870;4.316;2023-11-21T00:56:23;48.75;;;26.60;;
21786;SDS011;11055;50.870;4.316;2023-11-21T00:58:49;50.63;;;25.60;;
21786;SDS011;11055;50.870;4.316;2023-11-21T01:01:17;48.60;;;27.58;;
21786;SDS011;11055;50.870;4.316;2023-11-21T01:03:47;46.85;;;26.67;;
21786;SDS011;11055;50.870;4.316;2023-11-21T01:06:14;45.70;;;27.02;;
21786;SDS011;11055;50.870;4.316;2023-11-21T01:08:40;50.08;;;27.27;;
21786;SDS011;11055;50.870;4.316;2023-11-21T01:11:05;48.67;;;27.20;;
21786;SDS011;11055;50.870;4.316;2023-11-21T01:13:33;44.42;;;25.45;;
21786;SDS011;11055;50.870;4.316;2023-11-21T01:16:00;46.15;;;26.67;;
21786;SDS011;11055;50.870;4.316;2023-11-21T01:18:26;43.10;;;25.20;;
21786;SDS011;11055;50.870;4.316;2023-11-21T01:20:51;46.17;;;25.20;;
21786;SDS011;11055;50.870;4.316;2023-11-21T01:23:20;45.63;;;26.38;;
21786;SDS011;11055;50.870;4.316;2023-11-21T01:25:46;46.15;;;25.35;;
21786;SDS011;11055;50.870;4.316;2023-11-21T01:28:11;47.03;;;25.98;;
21786;SDS011;11055;50.870;4.316;2023-11-21T01:30:37;43.97;;;24.80;;
21786;SDS011;11055;50.870;4.316;2023-11-21T01:33:03;46.88;;;26.00;;
21786;SDS011;11055;50.870;4.316;2023-11-21T01:35:29;41.88;;;25.65;;
21786;SDS011;11055;50.870;4.316;2023-11-21T01:37:55;38.92;;;25.15;;
21786;SDS011;11055;50.870;4.316;2023-11-21T01:40:21;40.15;;;24.95;;
21786;SDS011;11055;50.870;4.316;2023-11-21T01:42:46;41.33;;;24.83;;
21786;SDS011;11055;50.870;4.316;2023-11-21T01:45:12;37.58;;;24.48;;
21786;SDS011;11055;50.870;4.316;2023-11-21T01:47:39;38.13;;;23.88;;
21786;SDS011;11055;50.870;4.316;2023-11-21T01:50:06;41.47;;;24.35;;
21786;SDS011;11055;50.870;4.316;2023-11-21T01:52:36;40.75;;;23.48;;
21786;SDS011;11055;50.870;4.316;2023-11-21T01:55:04;39.53;;;24.48;;
21786;SDS011;11055;50.870;4.316;2023-11-21T01:57:31;38.08;;;23.60;;
21786;SDS011;11055;50.870;4.316;2023-11-21T01:59:57;37.60;;;22.95;;
21786;SDS011;11055;50.870;4.316;2023-11-21T02:02:26;41.97;;;23.02;;
21786;SDS011;11055;50.870;4.316;2023-11-21T02:04:51;39.70;;;21.90;;
21786;SDS011;11055;50.870;4.316;2023-11-21T02:07:17;33.70;;;21.30;;
21786;SDS011;11055;50.870;4.316;2023-11-21T02:09:44;38.78;;;22.25;;
21786;SDS011;11055;50.870;4.316;2023-11-21T02:12:10;37.22;;;22.27;;
21786;SDS011;11055;50.870;4.316;2023-11-21T02:14:36;42.85;;;22.40;;
21786;SDS011;11055;50.870;4.316;2023-11-21T02:17:02;39.15;;;20.85;;
21786;SDS011;11055;50.870;4.316;2023-11-21T02:19:28;35.97;;;21.25;;
21786;SDS011;11055;50.870;4.316;2023-11-21T02:21:56;33.25;;;19.77;;
21786;SDS011;11055;50.870;4.316;2023-11-21T02:24:28;34.90;;;21.15;;
21786;SDS011;11055;50.870;4.316;2023-11-21T02:26:55;39.42;;;21.73;;
21786;SDS011;11055;50.870;4.316;2023-11-21T02:29:21;31.08;;;18.65;;
21786;SDS011;11055;50.870;4.316;2023-11-21T02:31:47;32.22;;;20.02;;
21786;SDS011;11055;50.870;4.316;2023-11-21T02:34:16;35.03;;;19.48;;
21786;SDS011;11055;50.870;4.316;2023-11-21T02:36:45;37.97;;;20.10;;
21786;SDS011;11055;50.870;4.316;2023-11-21T02:39:15;31.60;;;19.45;;
21786;SDS011;11055;50.870;4.316;2023-11-21T02:41:41;28.92;;;19.05;;
21786;SDS011;11055;50.870;4.316;2023-11-21T02:44:08;31.50;;;18.92;;
21786;SDS011;11055;50.870;4.316;2023-11-21T02:46:35;28.58;;;16.95;;
21786;SDS011;11055;50.870;4.316;2023-11-21T02:49:04;33.15;;;17.08;;
21786;SDS011;11055;50.870;4.316;2023-11-21T02:51:31;28.27;;;16.52;;
21786;SDS011;11055;50.870;4.316;2023-11-21T02:53:57;26.77;;;15.10;;
21786;SDS011;11055;50.870;4.316;2023-11-21T02:56:24;27.42;;;15.02;;
21786;SDS011;11055;50.870;4.316;2023-11-21T02:58:51;25.48;;;15.38;;
21786;SDS011;11055;50.870;4.316;2023-11-21T03:01:17;22.10;;;14.27;;
21786;SDS011;11055;50.870;4.316;2023-11-21T03:03:43;26.33;;;14.77;;
21786;SDS011;11055;50.870;4.316;2023-11-21T03:06:09;25.23;;;14.50;;
21786;SDS011;11055;50.870;4.316;2023-11-21T03:08:37;20.67;;;13.27;;
21786;SDS011;11055;50.870;4.316;2023-11-21T03:11:03;21.30;;;13.02;;
21786;SDS011;11055;50.870;4.316;2023-11-21T03:13:29;19.55;;;12.40;;
21786;SDS011;11055;50.870;4.316;2023-11-21T03:15:54;20.13;;;12.85;;
21786;SDS011;11055;50.870;4.316;2023-11-21T03:18:20;21.65;;;12.90;;
21786;SDS011;11055;50.870;4.316;2023-11-21T03:20:47;23.75;;;12.25;;
21786;SDS011;11055;50.870;4.316;2023-11-21T03:23:12;18.65;;;12.10;;
21786;SDS011;11055;50.870;4.316;2023-11-21T03:25:38;24.73;;;12.95;;
21786;SDS011;11055;50.870;4.316;2023-11-21T03:28:04;26.50;;;12.98;;
21786;SDS011;11055;50.870;4.316;2023-11-21T03:30:29;22.88;;;12.65;;
21786;SDS011;11055;50.870;4.316;2023-11-21T03:32:55;26.33;;;14.13;;
21786;SDS011;11055;50.870;4.316;2023-11-21T03:35:21;24.33;;;13.68;;
21786;SDS011;11055;50.870;4.316;2023-11-21T03:37:46;26.85;;;15.25;;
21786;SDS011;11055;50.870;4.316;2023-11-21T03:40:12;26.02;;;15.88;;
21786;SDS011;11055;50.870;4.316;2023-11-21T03:42:38;25.17;;;16.00;;
21786;SDS011;11055;50.870;4.316;2023-11-21T03:45:05;23.85;;;16.70;;
21786;SDS011;11055;50.870;4.316;2023-11-21T03:47:31;28.67;;;18.52;;
21786;SDS011;11055;50.870;4.316;2023-11-21T03:49:57;24.88;;;16.90;;
21786;SDS011;11055;50.870;4.316;2023-11-21T03:52:23;24.95;;;18.30;;
21786;SDS011;11055;50.870;4.316;2023-11-21T03:54:49;29.92;;;18.90;;
21786;SDS011;11055;50.870;4.316;2023-11-21T03:57:15;27.52;;;18.10;;
21786;SDS011;11055;50.870;4.316;2023-11-21T03:59:40;28.85;;;17.80;;
21786;SDS011;11055;50.870;4.316;2023-11-21T04:02:07;27.95;;;18.80;;
21786;SDS011;11055;50.870;4.316;2023-11-21T04:04:33;29.85;;;19.67;;
21786;SDS011;11055;50.870;4.316;2023-11-21T04:06:59;34.47;;;19.95;;
21786;SDS011;11055;50.870;4.316;2023-11-21T04:09:25;29.25;;;19.52;;
21786;SDS011;11055;50.870;4.316;2023-11-21T04:11:51;30.10;;;18.95;;
21786;SDS011;11055;50.870;4.316;2023-11-21T04:14:17;31.50;;;19.50;;
21786;SDS011;11055;50.870;4.316;2023-11-21T04:16:47;27.17;;;18.85;;
21786;SDS011;11055;50.870;4.316;2023-11-21T04:19:13;31.90;;;20.48;;
21786;SDS011;11055;50.870;4.316;2023-11-21T04:21:42;33.25;;;23.67;;
21786;SDS011;11055;50.870;4.316;2023-11-21T04:24:09;29.75;;;19.48;;
21786;SDS011;11055;50.870;4.316;2023-11-21T04:26:35;27.70;;;19.17;;
21786;SDS011;11055;50.870;4.316;2023-11-21T04:29:01;28.13;;;19.48;;
21786;SDS011;11055;50.870;4.316;2023-11-21T04:31:27;30.20;;;20.23;;
21786;SDS011;11055;50.870;4.316;2023-11-21T04:33:52;29.90;;;20.15;;
21786;SDS011;11055;50.870;4.316;2023-11-21T04:36:18;31.30;;;20.63;;
21786;SDS011;11055;50.870;4.316;2023-11-21T04:38:44;30.65;;;21.52;;
21786;SDS011;11055;50.870;4.316;2023-11-21T04:41:10;29.25;;;22.00;;
21786;SDS011;11055;50.870;4.316;2023-11-21T04:43:37;33.45;;;22.80;;
21786;SDS011;11055;50.870;4.316;2023-11-21T04:46:02;28.45;;;21.05;;
21786;SDS011;11055;50.870;4.316;2023-11-21T04:48:28;34.97;;;22.02;;
21786;SDS011;11055;50.870;4.316;2023-11-21T04:50:54;33.72;;;21.58;;
21786;SDS011;11055;50.870;4.316;2023-11-21T04:53:19;38.78;;;24.17;;
21786;SDS011;11055;50.870;4.316;2023-11-21T04:55:45;33.38;;;22.30;;
21786;SDS011;11055;50.870;4.316;2023-11-21T04:58:11;36.75;;;23.38;;
21786;SDS011;11055;50.870;4.316;2023-11-21T05:00:37;33.33;;;23.58;;
21786;SDS011;11055;50.870;4.316;2023-11-21T05:03:06;33.20;;;23.02;;
21786;SDS011;11055;50.870;4.316;2023-11-21T05:05:32;34.42;;;23.50;;
21786;SDS011;11055;50.870;4.316;2023-11-21T05:07:59;35.20;;;24.27;;
21786;SDS011;11055;50.870;4.316;2023-11-21T05:10:24;40.20;;;25.33;;
21786;SDS011;11055;50.870;4.316;2023-11-21T05:12:54;33.60;;;24.45;;
21786;SDS011;11055;50.870;4.316;2023-11-21T05:15:20;35.28;;;24.23;;
21786;SDS011;11055;50.870;4.316;2023-11-21T05:17:46;39.92;;;25.38;;
21786;SDS011;11055;50.870;4.316;2023-11-21T05:20:17;38.42;;;24.60;;
21786;SDS011;11055;50.870;4.316;2023-11-21T05:22:45;35.72;;;24.38;;
21786;SDS011;11055;50.870;4.316;2023-11-21T05:25:14;34.03;;;24.48;;
21786;SDS011;11055;50.870;4.316;2023-11-21T05:27:43;38.75;;;25.33;;
21786;SDS011;11055;50.870;4.316;2023-11-21T05:30:12;38.88;;;24.08;;
21786;SDS011;11055;50.870;4.316;2023-11-21T05:32:39;36.50;;;23.13;;
21786;SDS011;11055;50.870;4.316;2023-11-21T05:35:07;41.42;;;24.67;;
21786;SDS011;11055;50.870;4.316;2023-11-21T05:37:37;35.88;;;23.10;;
21786;SDS011;11055;50.870;4.316;2023-11-21T05:40:07;34.17;;;22.23;;
21786;SDS011;11055;50.870;4.316;2023-11-21T05:42:33;32.15;;;22.60;;
21786;SDS011;11055;50.870;4.316;2023-11-21T05:45:00;34.53;;;23.45;;
21786;SDS011;11055;50.870;4.316;2023-11-21T05:47:39;34.15;;;23.45;;
21786;SDS011;11055;50.870;4.316;2023-11-21T05:50:07;34.30;;;22.50;;
21786;SDS011;11055;50.870;4.316;2023-11-21T05:52:37;33.92;;;22.05;;
21786;SDS011;11055;50.870;4.316;2023-11-21T05:55:04;28.88;;;21.52;;
21786;SDS011;11055;50.870;4.316;2023-11-21T05:57:34;30.10;;;22.02;;
21786;SDS011;11055;50.870;4.316;2023-11-21T06:00:10;33.50;;;23.25;;
21786;SDS011;11055;50.870;4.316;2023-11-21T06:02:57;34.65;;;21.20;;
21786;SDS011;11055;50.870;4.316;2023-11-21T06:05:23;36.65;;;23.05;;
21786;SDS011;11055;50.870;4.316;2023-11-21T06:07:50;38.13;;;22.27;;
21786;SDS011;11055;50.870;4.316;2023-11-21T06:10:17;33.33;;;22.65;;
21786;SDS011;11055;50.870;4.316;2023-11-21T06:12:45;32.83;;;22.50;;
21786;SDS011;11055;50.870;4.316;2023-11-21T06:15:10;29.33;;;21.48;;
21786;SDS011;11055;50.870;4.316;2023-11-21T06:17:39;33.80;;;22.75;;
21786;SDS011;11055;50.870;4.316;2023-11-21T06:20:06;36.35;;;23.80;;
21786;SDS011;11055;50.870;4.316;2023-11-21T06:22:40;33.38;;;23.98;;
21786;SDS011;11055;50.870;4.316;2023-11-21T06:25:07;33.25;;;22.00;;
21786;SDS011;11055;50.870;4.316;2023-11-21T06:27:34;34.67;;;21.17;;
21786;SDS011;11055;50.870;4.316;2023-11-21T06:30:05;29.98;;;22.10;;
21786;SDS011;11055;50.870;4.316;2023-11-21T06:32:32;33.15;;;24.23;;
21786;SDS011;11055;50.870;4.316;2023-11-21T06:34:57;33.60;;;24.08;;
21786;SDS011;11055;50.870;4.316;2023-11-21T06:37:26;37.25;;;23.92;;
21786;SDS011;11055;50.870;4.316;2023-11-21T06:39:52;34.63;;;23.58;;
21786;SDS011;11055;50.870;4.316;2023-11-21T06:42:19;35.22;;;24.77;;
21786;SDS011;11055;50.870;4.316;2023-11-21T06:44:45;35.97;;;23.90;;
21786;SDS011;11055;50.870;4.316;2023-11-21T06:47:11;34.40;;;23.55;;
21786;SDS011;11055;50.870;4.316;2023-11-21T06:49:37;35.42;;;23.75;;
21786;SDS011;11055;50.870;4.316;2023-11-21T06:52:03;36.17;;;24.48;;
21786;SDS011;11055;50.870;4.316;2023-11-21T06:54:30;33.80;;;24.13;;
21786;SDS011;11055;50.870;4.316;2023-11-21T06:56:57;33.70;;;23.98;;
21786;SDS011;11055;50.870;4.316;2023-11-21T06:59:23;34.65;;;24.25;;
21786;SDS011;11055;50.870;4.316;2023-11-21T07:01:49;39.10;;;25.08;;
21786;SDS011;11055;50.870;4.316;2023-11-21T07:04:15;37.42;;;25.67;;
21786;SDS011;11055;50.870;4.316;2023-11-21T07:06:41;36.17;;;25.75;;
21786;SDS011;11055;50.870;4.316;2023-11-21T07:09:08;36.35;;;25.13;;
21786;SDS011;11055;50.870;4.316;2023-11-21T07:11:34;36.63;;;26.65;;
21786;SDS011;11055;50.870;4.316;2023-11-21T07:14:00;35.80;;;25.33;;
21786;SDS011;11055;50.870;4.316;2023-11-21T07:16:32;37.95;;;24.63;;
21786;SDS011;11055;50.870;4.316;2023-11-21T07:19:00;38.72;;;26.35;;
21786;SDS011;11055;50.870;4.316;2023-11-21T07:21:25;37.58;;;24.20;;
21786;SDS011;11055;50.870;4.316;2023-11-21T07:23:51;41.50;;;24.52;;
21786;SDS011;11055;50.870;4.316;2023-11-21T07:26:21;37.20;;;24.70;;
21786;SDS011;11055;50.870;4.316;2023-11-21T07:28:47;42.85;;;27.08;;
21786;SDS011;11055;50.870;4.316;2023-11-21T07:31:13;44.40;;;26.35;;
21786;SDS011;11055;50.870;4.316;2023-11-21T07:33:38;45.05;;;26.08;;
21786;SDS011;11055;50.870;4.316;2023-11-21T07:36:04;43.88;;;26.35;;
21786;SDS011;11055;50.870;4.316;2023-11-21T07:38:30;45.20;;;27.33;;
21786;SDS011;11055;50.870;4.316;2023-11-21T07:40:56;43.75;;;25.80;;
21786;SDS011;11055;50.870;4.316;2023-11-21T07:43:21;41.40;;;25.85;;
21786;SDS011;11055;50.870;4.316;2023-11-21T07:45:47;48.72;;;26.45;;
21786;SDS011;11055;50.870;4.316;2023-11-21T07:48:13;47.75;;;28.10;;
21786;SDS011;11055;50.870;4.316;2023-11-21T07:50:38;45.67;;;26.10;;
21786;SDS011;11055;50.870;4.316;2023-11-21T07:53:04;45.10;;;27.55;;
21786;SDS011;11055;50.870;4.316;2023-11-21T07:55:30;44.00;;;27.60;;
21786;SDS011;11055;50.870;4.316;2023-11-21T07:57:57;47.08;;;28.42;;
21786;SDS011;11055;50.870;4.316;2023-11-21T08:00:22;43.08;;;26.63;;
21786;SDS011;11055;50.870;4.316;2023-11-21T08:02:49;43.58;;;27.17;;
21786;SDS011;11055;50.870;4.316;2023-11-21T08:05:15;41.00;;;26.65;;
21786;SDS011;11055;50.870;4.316;2023-11-21T08:07:41;42.20;;;26.80;;
21786;SDS011;11055;50.870;4.316;2023-11-21T08:10:07;47.25;;;26.67;;
21786;SDS011;11055;50.870;4.316;2023-11-21T08:12:35;46.60;;;27.95;;
21786;SDS011;11055;50.870;4.316;2023-11-21T08:15:00;44.20;;;28.15;;
21786;SDS011;11055;50.870;4.316;2023-11-21T08:17:28;47.85;;;28.13;;
21786;SDS011;11055;50.870;4.316;2023-11-21T08:19:54;45.35;;;27.10;;
21786;SDS011;11055;50.870;4.316;2023-11-21T08:22:20;39.42;;;26.73;;
21786;SDS011;11055;50.870;4.316;2023-11-21T08:24:46;45.35;;;29.33;;
21786;SDS011;11055;50.870;4.316;2023-11-21T08:27:12;43.03;;;28.33;;
21786;SDS011;11055;50.870;4.316;2023-11-21T08:29:41;41.83;;;28.27;;
21786;SDS011;11055;50.870;4.316;2023-11-21T08:32:07;46.28;;;29.65;;
21786;SDS011;11055;50.870;4.316;2023-11-21T08:34:32;47.20;;;29.67;;
21786;SDS011;11055;50.870;4.316;2023-11-21T08:36:58;46.25;;;29.48;;
21786;SDS011;11055;50.870;4.316;2023-11-21T08:39:24;48.97;;;29.27;;
21786;SDS011;11055;50.870;4.316;2023-11-21T08:41:51;45.00;;;28.95;;
21786;SDS011;11055;50.870;4.316;2023-11-21T08:44:17;50.40;;;31.52;;
21786;SDS011;11055;50.870;4.316;2023-11-21T08:46:46;43.47;;;28.88;;
21786;SDS011;11055;50.870;4.316;2023-11-21T08:49:12;46.03;;;28.33;;
21786;SDS011;11055;50.870;4.316;2023-11-21T08:51:39;52.00;;;27.95;;
21786;SDS011;11055;50.870;4.316;2023-11-21T08:54:05;45.22;;;25.80;;
21786;SDS011;11055;50.870;4.316;2023-11-21T08:56:33;54.00;;;29.52;;
21786;SDS011;11055;50.870;4.316;2023-11-21T08:58:59;44.75;;;27.65;;
21786;SDS011;11055;50.870;4.316;2023-11-21T09:01:28;44.80;;;28.35;;
21786;SDS011;11055;50.870;4.316;2023-11-21T09:03:56;48.60;;;28.25;;
21786;SDS011;11055;50.870;4.316;2023-11-21T09:06:23;49.63;;;29.08;;
21786;SDS011;11055;50.870;4.316;2023-11-21T09:08:49;47.33;;;31.13;;
21786;SDS011;11055;50.870;4.316;2023-11-21T09:11:15;50.63;;;28.83;;
21786;SDS011;11055;50.870;4.316;2023-11-21T09:13:40;53.78;;;29.02;;
21786;SDS011;11055;50.870;4.316;2023-11-21T09:16:06;54.40;;;28.88;;
21786;SDS011;11055;50.870;4.316;2023-11-21T09:18:32;49.70;;;28.63;;
21786;SDS011;11055;50.870;4.316;2023-11-21T09:20:57;53.58;;;28.05;;
21786;SDS011;11055;50.870;4.316;2023-11-21T09:23:24;53.78;;;28.92;;
21786;SDS011;11055;50.870;4.316;2023-11-21T09:25:50;49.17;;;28.27;;
21786;SDS011;11055;50.870;4.316;2023-11-21T09:28:16;50.00;;;27.58;;
21786;SDS011;11055;50.870;4.316;2023-11-21T09:30:43;47.50;;;27.25;;
21786;SDS011;11055;50.870;4.316;2023-11-21T09:33:09;50.20;;;27.90;;
21786;SDS011;11055;50.870;4.316;2023-11-21T09:35:38;45.67;;;26.98;;
21786;SDS011;11055;50.870;4.316;2023-11-21T09:38:04;48.53;;;26.73;;
21786;SDS011;11055;50.870;4.316;2023-11-21T09:40:35;45.75;;;26.92;;
21786;SDS011;11055;50.870;4.316;2023-11-21T09:43:00;45.47;;;27.05;;
21786;SDS011;11055;50.870;4.316;2023-11-21T09:45:41;43.85;;;26.58;;
21786;SDS011;11055;50.870;4.316;2023-11-21T09:48:15;40.90;;;24.90;;
21786;SDS011;11055;50.870;4.316;2023-11-21T09:50:42;40.63;;;25.75;;
21786;SDS011;11055;50.870;4.316;2023-11-21T09:53:18;38.20;;;24.05;;
21786;SDS011;11055;50.870;4.316;2023-11-21T09:55:50;36.42;;;22.02;;
21786;SDS011;11055;50.870;4.316;2023-11-21T09:58:17;31.92;;;20.40;;
21786;SDS011;11055;50.870;4.316;2023-11-21T10:00:45;30.48;;;20.38;;
21786;SDS011;11055;50.870;4.316;2023-11-21T10:03:12;27.40;;;19.52;;
21786;SDS011;11055;50.870;4.316;2023-11-21T10:05:39;27.48;;;20.40;;
21786;SDS011;11055;50.870;4.316;2023-11-21T10:08:07;26.45;;;18.75;;
21786;SDS011;11055;50.870;4.316;2023-11-21T10:10:42;28.00;;;20.23;;
21786;SDS011;11055;50.870;4.316;2023-11-21T10:13:13;28.30;;;20.70;;
21786;SDS011;11055;50.870;4.316;2023-11-21T10:15:41;28.33;;;21.08;;
21786;SDS011;11055;50.870;4.316;2023-11-21T10:18:13;40.40;;;23.73;;
21786;SDS011;11055;50.870;4.316;2023-11-21T10:20:43;33.70;;;22.13;;
21786;SDS011;11055;50.870;4.316;2023-11-21T10:23:16;33.30;;;22.60;;
21786;SDS011;11055;50.870;4.316;2023-11-21T10:25:47;36.25;;;22.95;;
21786;SDS011;11055;50.870;4.316;2023-11-21T10:28:14;35.53;;;22.33;;
21786;SDS011;11055;50.870;4.316;2023-11-21T10:30:40;34.08;;;22.50;;
21786;SDS011;11055;50.870;4.316;2023-11-21T10:33:06;34.78;;;21.45;;
21786;SDS011;11055;50.870;4.316;2023-11-21T10:35:45;33.30;;;22.48;;
21786;SDS011;11055;50.870;4.316;2023-11-21T10:38:19;33.08;;;23.05;;
21786;SDS011;11055;50.870;4.316;2023-11-21T10:40:50;37.60;;;24.55;;
21786;SDS011;11055;50.870;4.316;2023-11-21T10:43:17;35.50;;;24.55;;
21786;SDS011;11055;50.870;4.316;2023-11-21T10:45:43;38.33;;;26.58;;
21786;SDS011;11055;50.870;4.316;2023-11-21T10:48:10;37.10;;;25.92;;
21786;SDS011;11055;50.870;4.316;2023-11-21T10:50:42;38.60;;;27.27;;
21786;SDS011;11055;50.870;4.316;2023-11-21T10:53:09;41.28;;;27.58;;
21786;SDS011;11055;50.870;4.316;2023-11-21T10:55:36;37.65;;;27.00;;
21786;SDS011;11055;50.870;4.316;2023-11-21T10:58:02;42.85;;;30.65;;
21786;SDS011;11055;50.870;4.316;2023-11-21T11:00:30;39.80;;;28.08;;
21786;SDS011;11055;50.870;4.316;2023-11-21T11:02:57;39.25;;;28.30;;
21786;SDS011;11055;50.870;4.316;2023-11-21T11:05:24;39.13;;;25.90;;
21786;SDS011;11055;50.870;4.316;2023-11-21T11:07:52;34.17;;;25.42;;
21786;SDS011;11055;50.870;4.316;2023-11-21T11:10:26;32.78;;;23.90;;
21786;SDS011;11055;50.870;4.316;2023-11-21T11:12:54;31.55;;;22.75;;
21786;SDS011;11055;50.870;4.316;2023-11-21T11:15:20;31.00;;;23.55;;
21786;SDS011;11055;50.870;4.316;2023-11-21T11:17:47;28.60;;;21.25;;
21786;SDS011;11055;50.870;4.316;2023-11-21T11:20:14;29.42;;;22.60;;
21786;SDS011;11055;50.870;4.316;2023-11-21T11:22:44;32.60;;;21.25;;
21786;SDS011;11055;50.870;4.316;2023-11-21T11:28:07;29.05;;;21.73;;
21786;SDS011;11055;50.870;4.316;2023-11-21T11:33:14;26.38;;;21.02;;
21786;SDS011;11055;50.870;4.316;2023-11-21T11:35:57;27.52;;;21.77;;
21786;SDS011;11055;50.870;4.316;2023-11-21T11:38:36;26.63;;;21.45;;
21786;SDS011;11055;50.870;4.316;2023-11-21T11:41:03;26.08;;;21.33;;
21786;SDS011;11055;50.870;4.316;2023-11-21T11:43:29;25.33;;;21.63;;
21786;SDS011;11055;50.870;4.316;2023-11-21T11:45:58;26.80;;;20.40;;
21786;SDS011;11055;50.870;4.316;2023-11-21T11:48:25;21.77;;;17.05;;
21786;SDS011;11055;50.870;4.316;2023-11-21T11:53:37;22.67;;;17.27;;
21786;SDS011;11055;50.870;4.316;2023-11-21T11:58:57;18.90;;;14.55;;
21786;SDS011;11055;50.870;4.316;2023-11-21T12:01:24;19.57;;;14.27;;
21786;SDS011;11055;50.870;4.316;2023-11-21T12:04:22;18.77;;;14.20;;
21786;SDS011;11055;50.870;4.316;2023-11-21T12:06:42;18.97;;;13.93;;
21786;SDS011;11055;50.870;4.316;2023-11-21T12:09:27;18.42;;;13.82;;
21786;SDS011;11055;50.870;4.316;2023-11-21T12:11:55;17.00;;;12.85;;
21786;SDS011;11055;50.870;4.316;2023-11-21T12:14:23;16.80;;;13.25;;
21786;SDS011;11055;50.870;4.316;2023-11-21T12:16:50;20.35;;;12.55;;
21786;SDS011;11055;50.870;4.316;2023-11-21T12:19:16;12.90;;;9.93;;
21786;SDS011;11055;50.870;4.316;2023-11-21T12:21:42;16.05;;;10.57;;
21786;SDS011;11055;50.870;4.316;2023-11-21T12:24:09;13.02;;;9.73;;
21786;SDS011;11055;50.870;4.316;2023-11-21T12:26:35;16.05;;;10.75;;
21786;SDS011;11055;50.870;4.316;2023-11-21T12:29:03;15.38;;;10.73;;
21786;SDS011;11055;50.870;4.316;2023-11-21T12:31:31;11.77;;;9.55;;
21786;SDS011;11055;50.870;4.316;2023-11-21T12:33:57;16.50;;;9.50;;
21786;SDS011;11055;50.870;4.316;2023-11-21T12:36:22;13.00;;;9.88;;
21786;SDS011;11055;50.870;4.316;2023-11-21T12:38:50;11.40;;;9.30;;
21786;SDS011;11055;50.870;4.316;2023-11-21T12:41:16;14.80;;;8.90;;
21786;SDS011;11055;50.870;4.316;2023-11-21T12:43:46;11.45;;;8.68;;
21786;SDS011;11055;50.870;4.316;2023-11-21T12:46:12;15.27;;;8.30;;
21786;SDS011;11055;50.870;4.316;2023-11-21T12:48:42;13.15;;;9.00;;
21786;SDS011;11055;50.870;4.316;2023-11-21T12:51:10;12.38;;;9.82;;
21786;SDS011;11055;50.870;4.316;2023-11-21T12:53:37;12.82;;;9.07;;
21786;SDS011;11055;50.870;4.316;2023-11-21T12:56:07;11.90;;;8.68;;
21786;SDS011;11055;50.870;4.316;2023-11-21T13:01:01;17.27;;;9.85;;
21786;SDS011;11055;50.870;4.316;2023-11-21T13:03:29;12.77;;;9.02;;
21786;SDS011;11055;50.870;4.316;2023-11-21T13:05:55;14.75;;;9.88;;
21786;SDS011;11055;50.870;4.316;2023-11-21T13:08:22;12.70;;;9.65;;
21786;SDS011;11055;50.870;4.316;2023-11-21T13:10:53;15.82;;;10.43;;
21786;SDS011;11055;50.870;4.316;2023-11-21T13:13:21;11.13;;;9.55;;
21786;SDS011;11055;50.870;4.316;2023-11-21T13:15:48;15.73;;;10.30;;
21786;SDS011;11055;50.870;4.316;2023-11-21T13:18:31;15.60;;;9.75;;
21786;SDS011;11055;50.870;4.316;2023-11-21T13:20:59;14.18;;;10.20;;
21786;SDS011;11055;50.870;4.316;2023-11-21T13:23:34;14.18;;;10.93;;
21786;SDS011;11055;50.870;4.316;2023-11-21T13:26:01;17.48;;;11.05;;
21786;SDS011;11055;50.870;4.316;2023-11-21T13:28:29;22.08;;;12.63;;
21786;SDS011;11055;50.870;4.316;2023-11-21T13:30:58;13.70;;;11.25;;
21786;SDS011;11055;50.870;4.316;2023-11-21T13:33:28;13.93;;;11.63;;
21786;SDS011;11055;50.870;4.316;2023-11-21T13:35:54;13.88;;;11.75;;
21786;SDS011;11055;50.870;4.316;2023-11-21T13:38:21;12.13;;;10.82;;
21786;SDS011;11055;50.870;4.316;2023-11-21T13:40:51;13.63;;;11.07;;
21786;SDS011;11055;50.870;4.316;2023-11-21T13:43:19;12.48;;;10.70;;
21786;SDS011;11055;50.870;4.316;2023-11-21T13:45:47;16.23;;;10.73;;
21786;SDS011;11055;50.870;4.316;2023-11-21T13:48:23;13.38;;;11.85;;
21786;SDS011;11055;50.870;4.316;2023-11-21T13:51:09;14.43;;;13.02;;
21786;SDS011;11055;50.870;4.316;2023-11-21T13:53:42;12.52;;;11.32;;
21786;SDS011;11055;50.870;4.316;2023-11-21T13:56:09;12.15;;;10.85;;
21786;SDS011;11055;50.870;4.316;2023-11-21T13:58:36;11.15;;;9.40;;
21786;SDS011;11055;50.870;4.316;2023-11-21T14:01:16;10.93;;;8.43;;
21786;SDS011;11055;50.870;4.316;2023-11-21T14:04:12;8.77;;;7.97;;
21786;SDS011;11055;50.870;4.316;2023-11-21T14:06:42;9.70;;;8.70;;
21786;SDS011;11055;50.870;4.316;2023-11-21T14:09:17;9.82;;;8.93;;
21786;SDS011;11055;50.870;4.316;2023-11-21T14:12:06;10.75;;;9.65;;
21786;SDS011;11055;50.870;4.316;2023-11-21T14:14:32;12.32;;;9.65;;
21786;SDS011;11055;50.870;4.316;2023-11-21T14:16:59;11.85;;;9.65;;
21786;SDS011;11055;50.870;4.316;2023-11-21T14:19:24;10.43;;;9.40;;
21786;SDS011;11055;50.870;4.316;2023-11-21T14:21:57;10.85;;;9.60;;
21786;SDS011;11055;50.870;4.316;2023-11-21T14:24:23;10.02;;;9.02;;
21786;SDS011;11055;50.870;4.316;2023-11-21T14:26:49;9.25;;;8.30;;
21786;SDS011;11055;50.870;4.316;2023-11-21T14:29:16;9.98;;;8.70;;
21786;SDS011;11055;50.870;4.316;2023-11-21T14:31:45;9.77;;;8.77;;
21786;SDS011;11055;50.870;4.316;2023-11-21T14:34:11;9.55;;;7.95;;
21786;SDS011;11055;50.870;4.316;2023-11-21T14:36:40;8.70;;;7.70;;
21786;SDS011;11055;50.870;4.316;2023-11-21T14:39:05;11.00;;;6.82;;